sensor_id;sensor_type;location;lat;lon;timestamp;temperature;humidity
35645;DHT22;21764;52.042;6.830;2023-01-29T00:07:02;1.80;99.90
35645;DHT22;21764;52.042;6.830;2023-01-29T00:51:38;1.90;99.90
35645;DHT22;21764;52.042;6.830;2023-01-29T01:15:40;1.90;99.90
35645;DHT22;21764;52.042;6.830;2023-01-29T01:57:16;1.80;99.90
35645;DHT22;21764;52.042;6.830;2023-01-29T02:09:14;1.80;99.90
35645;DHT22;21764;52.042;6.830;2023-01-29T02:26:57;1.80;99.90
35645;DHT22;21764;52.042;6.830;2023-01-29T02:32:58;1.90;99.90
35645;DHT22;21764;52.042;6.830;2023-01-29T03:00:45;1.70;99.90
35645;DHT22;21764;52.042;6.830;2023-01-29T03:12:11;1.70;99.90
35645;DHT22;21764;52.042;6.830;2023-01-29T03:39:06;1.70;99.90
35645;DHT22;21764;52.042;6.830;2023-01-29T03:57:55;1.60;99.90
35645;DHT22;21764;52.042;6.830;2023-01-29T04:04:08;1.60;99.90
35645;DHT22;21764;52.042;6.830;2023-01-29T04:46:38;1.60;99.90
35645;DHT22;21764;52.042;6.830;2023-01-29T04:52:49;1.50;99.90
35645;DHT22;21764;52.042;6.830;2023-01-29T05:05:07;1.60;99.90
35645;DHT22;21764;52.042;6.830;2023-01-29T05:17:11;1.50;99.90
35645;DHT22;21764;52.042;6.830;2023-01-29T05:28:51;1.60;99.90
35645;DHT22;21764;52.042;6.830;2023-01-29T05:40:07;1.50;99.90
35645;DHT22;21764;52.042;6.830;2023-01-29T05:45:36;1.60;99.90
35645;DHT22;21764;52.042;6.830;2023-01-29T05:57:03;1.50;99.90
35645;DHT22;21764;52.042;6.830;2023-01-29T06:02:28;1.50;99.90
35645;DHT22;21764;52.042;6.830;2023-01-29T06:08:30;1.50;99.90
35645;DHT22;21764;52.042;6.830;2023-01-29T06:13:55;1.50;99.90
35645;DHT22;21764;52.042;6.830;2023-01-29T06:26:13;1.50;99.90
35645;DHT22;21764;52.042;6.830;2023-01-29T06:31:51;1.50;99.90
35645;DHT22;21764;52.042;6.830;2023-01-29T06:36:54;1.50;99.90
35645;DHT22;21764;52.042;6.830;2023-01-29T07:00:11;1.40;99.90
35645;DHT22;21764;52.042;6.830;2023-01-29T07:06:00;1.40;99.90
35645;DHT22;21764;52.042;6.830;2023-01-29T07:22:34;1.50;99.90
35645;DHT22;21764;52.042;6.830;2023-01-29T07:28:02;1.50;99.90
35645;DHT22;21764;52.042;6.830;2023-01-29T07:33:35;1.50;99.90
35645;DHT22;21764;52.042;6.830;2023-01-29T07:39:02;1.50;99.90
35645;DHT22;21764;52.042;6.830;2023-01-29T07:44:32;1.50;99.90
35645;DHT22;21764;52.042;6.830;2023-01-29T07:55:45;1.50;99.90
35645;DHT22;21764;52.042;6.830;2023-01-29T08:01:30;1.60;99.90
35645;DHT22;21764;52.042;6.830;2023-01-29T08:06:54;1.60;99.90
35645;DHT22;21764;52.042;6.830;2023-01-29T08:12:30;1.70;99.90
35645;DHT22;21764;52.042;6.830;2023-01-29T08:36:40;1.90;99.90
35645;DHT22;21764;52.042;6.830;2023-01-29T08:42:06;2.10;99.90
35645;DHT22;21764;52.042;6.830;2023-01-29T08:47:15;2.20;99.90
35645;DHT22;21764;52.042;6.830;2023-01-29T08:52:56;2.40;99.90
35645;DHT22;21764;52.042;6.830;2023-01-29T09:03:46;2.50;99.90
35645;DHT22;21764;52.042;6.830;2023-01-29T09:09:03;2.40;99.90
35645;DHT22;21764;52.042;6.830;2023-01-29T09:15:28;2.50;99.90
35645;DHT22;21764;52.042;6.830;2023-01-29T09:26:28;2.50;99.90
35645;DHT22;21764;52.042;6.830;2023-01-29T10:14:22;2.80;99.90
35645;DHT22;21764;52.042;6.830;2023-01-29T10:25:48;2.90;99.90
35645;DHT22;21764;52.042;6.830;2023-01-29T10:31:32;2.90;99.90
35645;DHT22;21764;52.042;6.830;2023-01-29T10:36:49;3.10;99.90
35645;DHT22;21764;52.042;6.830;2023-01-29T10:42:30;3.20;99.90
35645;DHT22;21764;52.042;6.830;2023-01-29T11:12:58;3.10;99.90
35645;DHT22;21764;52.042;6.830;2023-01-29T11:42:25;3.50;99.90
35645;DHT22;21764;52.042;6.830;2023-01-29T11:47:32;3.70;99.90
35645;DHT22;21764;52.042;6.830;2023-01-29T11:52:54;3.80;99.90
35645;DHT22;21764;52.042;6.830;2023-01-29T11:58:50;3.70;99.90
35645;DHT22;21764;52.042;6.830;2023-01-29T12:04:38;3.80;99.90
35645;DHT22;21764;52.042;6.830;2023-01-29T12:11:05;3.90;99.90
35645;DHT22;21764;52.042;6.830;2023-01-29T12:23:10;3.70;99.90
35645;DHT22;21764;52.042;6.830;2023-01-29T12:46:07;3.60;99.90
35645;DHT22;21764;52.042;6.830;2023-01-29T12:51:52;3.50;99.90
35645;DHT22;21764;52.042;6.830;2023-01-29T12:58:01;3.50;99.90
35645;DHT22;21764;52.042;6.830;2023-01-29T13:10:06;3.50;99.90
35645;DHT22;21764;52.042;6.830;2023-01-29T13:15:44;3.60;99.90
35645;DHT22;21764;52.042;6.830;2023-01-29T13:21:24;3.60;99.90
35645;DHT22;21764;52.042;6.830;2023-01-29T13:32:33;3.50;99.90
35645;DHT22;21764;52.042;6.830;2023-01-29T13:44:25;3.70;99.90
35645;DHT22;21764;52.042;6.830;2023-01-29T13:50:20;3.70;99.90
35645;DHT22;21764;52.042;6.830;2023-01-29T13:55:53;3.60;99.90
35645;DHT22;21764;52.042;6.830;2023-01-29T14:02:17;3.60;99.90
35645;DHT22;21764;52.042;6.830;2023-01-29T14:14:09;3.60;99.90
35645;DHT22;21764;52.042;6.830;2023-01-29T14:20:15;3.50;99.90
35645;DHT22;21764;52.042;6.830;2023-01-29T14:25:20;3.50;99.90
35645;DHT22;21764;52.042;6.830;2023-01-29T14:30:30;3.40;99.90
35645;DHT22;21764;52.042;6.830;2023-01-29T14:36:04;3.40;99.90
35645;DHT22;21764;52.042;6.830;2023-01-29T14:41:34;3.40;99.90
35645;DHT22;21764;52.042;6.830;2023-01-29T14:47:01;3.30;99.90
35645;DHT22;21764;52.042;6.830;2023-01-29T14:52:16;3.40;99.90
35645;DHT22;21764;52.042;6.830;2023-01-29T14:57:29;3.30;99.90
35645;DHT22;21764;52.042;6.830;2023-01-29T15:03:04;3.30;99.90
35645;DHT22;21764;52.042;6.830;2023-01-29T15:08:52;3.30;99.90
35645;DHT22;21764;52.042;6.830;2023-01-29T15:14:20;3.40;99.90
35645;DHT22;21764;52.042;6.830;2023-01-29T15:19:41;3.30;99.90
35645;DHT22;21764;52.042;6.830;2023-01-29T15:30:42;3.30;99.90
35645;DHT22;21764;52.042;6.830;2023-01-29T15:42:02;3.20;99.90
35645;DHT22;21764;52.042;6.830;2023-01-29T15:47:27;3.20;99.90
35645;DHT22;21764;52.042;6.830;2023-01-29T15:53:02;3.20;99.90
35645;DHT22;21764;52.042;6.830;2023-01-29T15:58:39;3.10;99.90
35645;DHT22;21764;52.042;6.830;2023-01-29T16:03:54;3.20;99.90
35645;DHT22;21764;52.042;6.830;2023-01-29T16:08:57;3.10;99.90
35645;DHT22;21764;52.042;6.830;2023-01-29T16:20:04;3.10;99.90
35645;DHT22;21764;52.042;6.830;2023-01-29T16:25:11;3.10;99.90
35645;DHT22;21764;52.042;6.830;2023-01-29T16:30:40;3.10;99.90
35645;DHT22;21764;52.042;6.830;2023-01-29T16:36:15;3.10;99.90
35645;DHT22;21764;52.042;6.830;2023-01-29T16:53:34;3.00;99.90
35645;DHT22;21764;52.042;6.830;2023-01-29T16:58:37;3.10;99.90
35645;DHT22;21764;52.042;6.830;2023-01-29T17:09:06;3.10;99.90
35645;DHT22;21764;52.042;6.830;2023-01-29T17:20:33;3.20;99.90
35645;DHT22;21764;52.042;6.830;2023-01-29T17:25:48;3.30;99.90
35645;DHT22;21764;52.042;6.830;2023-01-29T17:30:54;3.30;99.90
35645;DHT22;21764;52.042;6.830;2023-01-29T17:36:24;3.30;99.90
35645;DHT22;21764;52.042;6.830;2023-01-29T17:41:52;3.30;99.90
35645;DHT22;21764;52.042;6.830;2023-01-29T17:46:56;3.30;99.90
35645;DHT22;21764;52.042;6.830;2023-01-29T17:52:00;3.20;99.90
35645;DHT22;21764;52.042;6.830;2023-01-29T17:57:11;3.20;99.90
35645;DHT22;21764;52.042;6.830;2023-01-29T18:02:15;3.20;99.90
35645;DHT22;21764;52.042;6.830;2023-01-29T18:07:23;3.20;99.90
35645;DHT22;21764;52.042;6.830;2023-01-29T18:13:07;3.10;99.90
35645;DHT22;21764;52.042;6.830;2023-01-29T18:18:32;3.10;99.90
35645;DHT22;21764;52.042;6.830;2023-01-29T18:23:51;3.10;99.90
35645;DHT22;21764;52.042;6.830;2023-01-29T18:29:16;3.10;99.90
35645;DHT22;21764;52.042;6.830;2023-01-29T18:34:24;3.10;99.90
35645;DHT22;21764;52.042;6.830;2023-01-29T18:39:26;3.00;99.90
35645;DHT22;21764;52.042;6.830;2023-01-29T18:44:53;3.00;99.90
35645;DHT22;21764;52.042;6.830;2023-01-29T18:50:07;2.90;99.90
35645;DHT22;21764;52.042;6.830;2023-01-29T18:55:16;3.00;99.90
35645;DHT22;21764;52.042;6.830;2023-01-29T19:00:21;2.90;99.90
35645;DHT22;21764;52.042;6.830;2023-01-29T19:05:48;2.90;99.90
35645;DHT22;21764;52.042;6.830;2023-01-29T19:11:19;3.00;99.90
35645;DHT22;21764;52.042;6.830;2023-01-29T19:16:21;2.90;99.90
35645;DHT22;21764;52.042;6.830;2023-01-29T19:21:57;3.00;99.90
35645;DHT22;21764;52.042;6.830;2023-01-29T19:28:06;2.90;99.90
35645;DHT22;21764;52.042;6.830;2023-01-29T19:52:00;3.20;99.90
35645;DHT22;21764;52.042;6.830;2023-01-29T19:57:44;3.20;99.90
35645;DHT22;21764;52.042;6.830;2023-01-29T20:03:36;3.20;99.90
35645;DHT22;21764;52.042;6.830;2023-01-29T20:09:04;3.30;99.90
35645;DHT22;21764;52.042;6.830;2023-01-29T20:14:29;3.30;99.90
35645;DHT22;21764;52.042;6.830;2023-01-29T20:20:46;3.30;99.90
35645;DHT22;21764;52.042;6.830;2023-01-29T20:26:37;3.40;99.90
35645;DHT22;21764;52.042;6.830;2023-01-29T20:56:54;3.50;99.90
35645;DHT22;21764;52.042;6.830;2023-01-29T21:14:05;3.60;99.90
35645;DHT22;21764;52.042;6.830;2023-01-29T21:19:43;3.60;99.90
35645;DHT22;21764;52.042;6.830;2023-01-29T22:20:33;3.80;99.90
35645;DHT22;21764;52.042;6.830;2023-01-29T22:26:09;3.80;99.90
35645;DHT22;21764;52.042;6.830;2023-01-29T22:32:15;3.80;99.90
35645;DHT22;21764;52.042;6.830;2023-01-29T22:38:11;3.90;99.90
35645;DHT22;21764;52.042;6.830;2023-01-29T22:43:47;3.90;99.90
35645;DHT22;21764;52.042;6.830;2023-01-29T22:50:01;3.90;99.90
35645;DHT22;21764;52.042;6.830;2023-01-29T22:55:53;4.00;99.90
35645;DHT22;21764;52.042;6.830;2023-01-29T23:01:34;4.00;99.90
35645;DHT22;21764;52.042;6.830;2023-01-29T23:07:54;4.10;99.90
35645;DHT22;21764;52.042;6.830;2023-01-29T23:13:45;4.10;99.90
35645;DHT22;21764;52.042;6.830;2023-01-29T23:19:06;4.10;99.90
35645;DHT22;21764;52.042;6.830;2023-01-29T23:24:38;4.10;99.90
35645;DHT22;21764;52.042;6.830;2023-01-29T23:36:29;4.20;99.90
35645;DHT22;21764;52.042;6.830;2023-01-29T23:42:09;4.20;99.90
35645;DHT22;21764;52.042;6.830;2023-01-29T23:48:06;4.20;99.90
35645;DHT22;21764;52.042;6.830;2023-01-29T23:53:23;4.30;99.90
35645;DHT22;21764;52.042;6.830;2023-01-29T23:59:10;4.30;99.90
